Time;durP1;ratioP1;P1;durP2;ratioP2;P2;SDS_P1;SDS_P2;PMS_P1;PMS_P2;Temp;Humidity;BMP_temperature;BMP_pressure;BME280_temperature;BME280_humidity;BME280_pressure;Samples;Min_cycle;Max_cycle;Signal;HPM_P1;HPM_P2
2023/06/18 00:01:42;;;;;;;5.90;5.30;;;23.30;1.00;;;;;;5003741;28;20194;-84
2023/06/18 00:04:08;;;;;;;7.83;6.27;;;23.30;1.00;;;;;;5009203;28;20197;-85
2023/06/18 00:06:34;;;;;;;8.17;6.00;;;23.20;1.00;;;;;;5008028;28;20213;-83
2023/06/18 00:08:59;;;;;;;9.50;5.77;;;23.20;1.00;;;;;;5006981;28;20217;-85
2023/06/18 00:11:25;;;;;;;7.50;6.37;;;23.10;1.00;;;;;;5006567;28;20188;-84
2023/06/18 00:13:50;;;;;;;11.20;6.17;;;23.10;1.00;;;;;;5004913;28;20173;-84
2023/06/18 00:16:16;;;;;;;6.90;5.43;;;23.10;1.00;;;;;;5005933;28;20221;-85
2023/06/18 00:18:41;;;;;;;7.03;5.70;;;23.10;1.00;;;;;;5002809;28;20258;-84
2023/06/18 00:21:11;;;;;;;6.60;5.20;;;23.20;1.00;;;;;;5005073;28;20198;-85
2023/06/18 00:23:37;;;;;;;6.87;5.20;;;23.20;1.00;;;;;;5006705;28;20189;-85
2023/06/18 00:26:03;;;;;;;6.80;6.07;;;23.20;1.00;;;;;;5006006;28;20473;-84
2023/06/18 00:28:31;;;;;;;6.23;5.63;;;23.10;1.00;;;;;;4999362;28;20222;-82
2023/06/18 00:30:57;;;;;;;13.10;6.33;;;23.00;1.00;;;;;;5001292;28;20239;-83
2023/06/18 00:33:24;;;;;;;6.87;5.97;;;22.90;1.00;;;;;;5006753;28;20449;-83
2023/06/18 00:35:56;;;;;;;8.43;6.10;;;22.80;1.00;;;;;;5004341;28;20188;-85
2023/06/18 00:38:23;;;;;;;7.17;6.13;;;22.70;1.00;;;;;;5009342;28;20432;-84
2023/06/18 00:40:49;;;;;;;7.37;5.90;;;22.60;1.00;;;;;;5012777;28;20822;-83
2023/06/18 00:43:15;;;;;;;8.30;5.80;;;22.70;1.00;;;;;;5014303;28;20973;-83
2023/06/18 00:45:40;;;;;;;7.20;6.10;;;22.70;1.00;;;;;;5014304;28;20476;-85
2023/06/18 00:48:06;;;;;;;8.80;6.17;;;22.70;1.00;;;;;;5011112;28;20193;-84
2023/06/18 00:50:33;;;;;;;7.60;5.50;;;22.70;1.00;;;;;;5012108;28;20281;-84
2023/06/18 00:53:01;;;;;;;12.50;6.30;;;22.70;1.00;;;;;;5011623;28;20256;-83
2023/06/18 00:55:31;;;;;;;15.53;5.40;;;22.70;1.00;;;;;;5007991;28;20447;-84
2023/06/18 00:58:02;;;;;;;9.10;6.10;;;22.60;1.00;;;;;;5014020;28;20451;-85
2023/06/18 01:00:31;;;;;;;6.90;6.30;;;22.50;1.00;;;;;;5010815;28;20467;-86
2023/06/18 01:02:56;;;;;;;10.53;5.73;;;22.50;1.00;;;;;;5012775;28;20924;-83
2023/06/18 01:05:23;;;;;;;9.03;5.83;;;22.40;1.00;;;;;;5013699;28;20439;-83
2023/06/18 01:07:49;;;;;;;6.50;5.77;;;22.40;1.00;;;;;;5013025;28;20599;-84
2023/06/18 01:10:17;;;;;;;9.73;5.57;;;22.40;1.00;;;;;;5012560;28;20824;-83
2023/06/18 01:12:46;;;;;;;8.53;6.10;;;22.40;1.00;;;;;;5013997;28;20451;-83
2023/06/18 01:15:12;;;;;;;13.50;5.73;;;22.40;1.00;;;;;;5015278;28;20439;-84
2023/06/18 01:17:39;;;;;;;6.13;5.37;;;22.50;1.00;;;;;;5013634;28;20463;-84
2023/06/18 01:20:10;;;;;;;9.13;6.03;;;22.50;1.00;;;;;;5013434;28;20537;-83
2023/06/18 01:22:46;;;;;;;8.60;5.97;;;22.40;1.00;;;;;;5014794;28;20436;-83
2023/06/18 01:25:13;;;;;;;7.07;5.63;;;22.30;1.00;;;;;;5010019;28;20454;-84
2023/06/18 01:27:40;;;;;;;6.70;5.97;;;22.30;1.00;;;;;;5006415;28;20511;-83
2023/06/18 01:30:11;;;;;;;13.37;6.60;;;22.30;1.00;;;;;;5013336;28;20455;-83
2023/06/18 01:32:38;;;;;;;15.23;6.30;;;22.40;1.00;;;;;;5013542;28;20467;-83
2023/06/18 01:35:05;;;;;;;6.50;5.80;;;22.40;1.00;;;;;;5014796;28;20848;-84
2023/06/18 01:38:16;;;;;;;12.00;6.63;;;22.30;1.00;;;;;;5014227;28;20443;-85
2023/06/18 01:40:49;;;;;;;6.57;5.53;;;22.30;1.00;;;;;;5013360;28;20438;-85
2023/06/18 01:43:34;;;;;;;13.13;6.20;;;22.20;1.00;;;;;;5009880;28;20448;-84
2023/06/18 01:46:15;;;;;;;12.53;6.10;;;22.10;1.00;;;;;;5011487;28;20454;-85
2023/06/18 01:48:47;;;;;;;8.33;5.63;;;22.10;1.00;;;;;;5013795;28;20499;-83
2023/06/18 01:51:18;;;;;;;7.03;5.80;;;22.00;1.00;;;;;;5011131;28;20491;-85
2023/06/18 01:53:45;;;;;;;8.53;6.90;;;21.90;1.00;;;;;;5011682;28;20431;-84
2023/06/18 01:56:13;;;;;;;13.60;5.00;;;21.80;1.00;;;;;;5010267;28;20439;-84
2023/06/18 01:58:42;;;;;;;9.13;5.60;;;21.60;1.00;;;;;;5005887;28;20476;-84
2023/06/18 02:01:09;;;;;;;10.30;6.17;;;21.50;1.00;;;;;;5011849;28;20448;-84
2023/06/18 02:03:35;;;;;;;9.37;6.50;;;21.40;1.00;;;;;;5010694;28;20438;-85
2023/06/18 02:06:01;;;;;;;13.07;7.47;;;21.20;1.00;;;;;;5000618;28;20532;-83
2023/06/18 02:08:26;;;;;;;10.20;7.00;;;21.10;1.00;;;;;;4994204;28;20198;-82
2023/06/18 02:10:52;;;;;;;10.20;6.77;;;21.00;1.00;;;;;;5006095;28;20193;-83
2023/06/18 02:13:18;;;;;;;9.73;7.20;;;20.90;1.00;;;;;;5013615;28;20197;-84
2023/06/18 02:15:43;;;;;;;9.33;6.30;;;20.80;1.00;;;;;;5001361;28;20189;-85
2023/06/18 02:18:11;;;;;;;12.20;7.00;;;20.80;1.00;;;;;;4994334;28;20466;-82
2023/06/18 02:20:41;;;;;;;15.93;6.57;;;20.70;1.00;;;;;;4990534;28;20270;-83
2023/06/18 02:23:07;;;;;;;8.20;6.53;;;20.70;1.00;;;;;;5002709;28;20435;-83
2023/06/18 02:25:34;;;;;;;10.67;6.03;;;20.60;1.00;;;;;;5008595;28;20500;-83
2023/06/18 02:28:00;;;;;;;10.53;6.97;;;20.50;1.00;;;;;;5010704;28;20425;-83
2023/06/18 02:30:28;;;;;;;13.00;6.73;;;20.50;1.00;;;;;;5010323;28;20454;-84
2023/06/18 02:32:54;;;;;;;12.53;7.13;;;20.40;1.00;;;;;;5009251;28;20492;-84
2023/06/18 02:35:20;;;;;;;32.03;8.30;;;20.40;1.00;;;;;;5010391;28;21029;-83
2023/06/18 02:37:46;;;;;;;25.30;8.60;;;20.40;1.00;;;;;;5005337;28;20270;-83
2023/06/18 02:40:13;;;;;;;28.13;8.70;;;20.40;1.00;;;;;;5010235;28;20210;-83
2023/06/18 02:42:46;;;;;;;35.17;9.63;;;20.30;1.50;;;;;;5010468;28;20197;-83
2023/06/18 02:45:13;;;;;;;45.67;9.73;;;20.30;2.10;;;;;;5010746;28;20423;-84
2023/06/18 02:47:38;;;;;;;36.50;9.43;;;20.30;1.90;;;;;;5002894;28;20432;-83
2023/06/18 02:50:05;;;;;;;35.50;8.80;;;20.20;1.90;;;;;;5006436;28;20469;-84
2023/06/18 02:52:31;;;;;;;37.10;8.57;;;20.20;2.90;;;;;;5009237;28;20186;-83
2023/06/18 02:54:56;;;;;;;38.87;10.10;;;20.20;3.90;;;;;;5009288;28;20526;-84
2023/06/18 02:57:22;;;;;;;48.47;9.63;;;20.20;4.40;;;;;;5009323;28;20252;-83
2023/06/18 02:59:47;;;;;;;42.47;9.80;;;20.20;4.30;;;;;;5006818;28;20572;-83
2023/06/18 03:02:13;;;;;;;30.80;8.17;;;20.30;5.10;;;;;;5008818;28;20199;-83
2023/06/18 03:04:40;;;;;;;28.10;7.10;;;20.30;4.60;;;;;;5006514;28;20267;-83
2023/06/18 03:07:05;;;;;;;28.03;8.10;;;20.30;4.90;;;;;;5003798;28;20552;-84
2023/06/18 03:09:31;;;;;;;15.33;6.87;;;20.30;5.30;;;;;;5008921;28;20457;-81
2023/06/18 03:11:57;;;;;;;12.33;7.07;;;20.30;5.50;;;;;;5009503;28;20437;-83
2023/06/18 03:14:23;;;;;;;11.03;5.80;;;20.30;5.40;;;;;;5010497;28;20254;-83
2023/06/18 03:16:49;;;;;;;13.43;7.47;;;20.30;6.10;;;;;;5007254;28;20202;-82
2023/06/18 03:19:14;;;;;;;12.60;6.60;;;20.30;5.80;;;;;;5006036;28;20477;-84
2023/06/18 03:21:40;;;;;;;10.47;7.20;;;20.30;5.80;;;;;;5006249;28;20194;-82
2023/06/18 03:24:06;;;;;;;10.40;6.87;;;20.20;6.40;;;;;;5006706;28;20194;-83
2023/06/18 03:26:36;;;;;;;11.47;7.03;;;20.20;6.40;;;;;;5003488;28;20494;-82
2023/06/18 03:29:04;;;;;;;14.97;7.67;;;20.20;7.40;;;;;;5006848;28;20238;-84
2023/06/18 03:31:32;;;;;;;16.57;7.53;;;20.20;7.80;;;;;;5006969;28;20507;-83
2023/06/18 03:34:01;;;;;;;13.10;7.30;;;20.20;7.90;;;;;;5007304;28;20430;-84
2023/06/18 03:36:28;;;;;;;12.50;7.37;;;20.30;8.00;;;;;;5007442;28;20449;-83
2023/06/18 03:38:55;;;;;;;14.00;7.00;;;20.30;8.10;;;;;;5006288;28;20495;-84
2023/06/18 03:41:20;;;;;;;13.17;6.70;;;20.20;8.60;;;;;;5009020;28;20444;-84
2023/06/18 03:43:46;;;;;;;12.57;7.60;;;20.20;9.10;;;;;;5009806;28;20460;-83
2023/06/18 03:46:11;;;;;;;15.97;7.60;;;20.10;9.70;;;;;;5005354;28;20492;-83
2023/06/18 03:48:38;;;;;;;15.43;7.30;;;20.00;10.90;;;;;;5000579;28;20230;-83
2023/06/18 03:51:05;;;;;;;16.03;7.83;;;20.00;11.90;;;;;;5008907;28;20210;-82
2023/06/18 03:53:31;;;;;;;14.07;8.60;;;19.90;12.70;;;;;;5009441;28;20437;-84
2023/06/18 03:55:56;;;;;;;8.93;6.93;;;19.90;12.60;;;;;;5001169;28;20495;-83
2023/06/18 03:58:22;;;;;;;12.93;7.27;;;19.90;13.30;;;;;;5008491;28;20447;-82
2023/06/18 04:00:47;;;;;;;13.53;8.83;;;19.90;14.00;;;;;;4998587;28;20186;-84
2023/06/18 04:03:13;;;;;;;10.40;7.57;;;19.90;13.60;;;;;;5009928;28;20194;-86
2023/06/18 04:05:39;;;;;;;12.97;7.70;;;19.80;13.00;;;;;;5003736;28;20210;-83
2023/06/18 04:08:04;;;;;;;9.83;7.47;;;19.80;13.60;;;;;;5006987;28;20198;-83
2023/06/18 04:10:30;;;;;;;12.23;7.40;;;19.80;13.90;;;;;;5002039;28;20289;-84
2023/06/18 04:12:55;;;;;;;12.70;7.07;;;19.90;14.00;;;;;;5007903;28;20204;-82
2023/06/18 04:15:21;;;;;;;10.40;7.20;;;20.00;14.20;;;;;;5004992;28;20207;-84
2023/06/18 04:17:46;;;;;;;10.80;6.53;;;20.10;14.00;;;;;;5008133;28;20214;-85
2023/06/18 04:20:12;;;;;;;9.93;6.73;;;20.20;13.90;;;;;;5005339;28;20227;-85
2023/06/18 04:22:38;;;;;;;9.33;6.90;;;20.30;14.10;;;;;;5007228;28;20198;-85
2023/06/18 04:25:04;;;;;;;10.10;7.00;;;20.40;14.80;;;;;;5008135;28;21051;-84
2023/06/18 04:27:30;;;;;;;8.80;6.77;;;20.60;13.90;;;;;;5001192;28;20215;-85
2023/06/18 04:29:55;;;;;;;8.60;6.93;;;20.80;14.40;;;;;;5002211;28;20195;-84
2023/06/18 04:32:21;;;;;;;15.73;8.07;;;20.80;13.80;;;;;;5009050;28;20199;-85
2023/06/18 04:34:46;;;;;;;11.33;7.30;;;20.90;13.50;;;;;;5004637;28;20733;-83
2023/06/18 04:37:12;;;;;;;13.60;6.93;;;20.90;13.70;;;;;;5008882;28;20192;-84
2023/06/18 04:39:37;;;;;;;11.10;6.33;;;21.00;13.00;;;;;;5009141;28;20203;-85
2023/06/18 04:42:03;;;;;;;12.30;6.37;;;21.10;13.10;;;;;;5008677;28;20187;-84
2023/06/18 04:44:29;;;;;;;8.20;6.27;;;21.30;13.70;;;;;;5009223;28;20209;-83
2023/06/18 04:46:54;;;;;;;8.27;5.60;;;21.40;13.60;;;;;;5007729;28;20203;-84
2023/06/18 04:49:20;;;;;;;9.30;5.90;;;21.50;13.90;;;;;;5008123;28;20284;-85
2023/06/18 04:51:45;;;;;;;11.47;6.40;;;21.60;14.40;;;;;;5005786;28;20257;-84
2023/06/18 04:54:11;;;;;;;11.30;7.00;;;21.60;13.90;;;;;;5009921;28;20203;-85
2023/06/18 04:56:37;;;;;;;9.73;7.10;;;21.60;13.20;;;;;;5009412;28;20214;-84
2023/06/18 04:59:02;;;;;;;19.20;7.43;;;21.60;13.10;;;;;;5009226;28;20471;-85
2023/06/18 05:01:28;;;;;;;9.10;7.37;;;21.50;12.20;;;;;;5007233;28;20247;-84
2023/06/18 05:03:53;;;;;;;14.87;7.13;;;21.50;12.00;;;;;;5008233;28;20276;-83
2023/06/18 05:06:19;;;;;;;9.50;6.33;;;21.50;11.70;;;;;;5009601;28;20219;-85
2023/06/18 05:08:46;;;;;;;14.93;7.00;;;21.60;11.50;;;;;;5005934;28;20236;-85
2023/06/18 05:11:12;;;;;;;12.20;6.43;;;21.60;11.70;;;;;;5009145;28;20185;-84
2023/06/18 05:13:38;;;;;;;8.73;6.47;;;21.70;11.10;;;;;;5009080;28;20448;-84
2023/06/18 05:16:03;;;;;;;9.07;5.90;;;21.80;11.00;;;;;;5009543;28;20204;-86
2023/06/18 05:18:29;;;;;;;12.23;6.47;;;21.80;11.10;;;;;;5008897;28;20205;-85
2023/06/18 05:20:54;;;;;;;10.90;6.33;;;21.80;11.50;;;;;;5008238;28;20190;-85
2023/06/18 05:23:20;;;;;;;11.23;6.80;;;21.80;11.70;;;;;;5004391;28;20189;-84
2023/06/18 05:25:45;;;;;;;8.50;6.00;;;21.90;12.40;;;;;;5007345;28;20742;-84
2023/06/18 05:28:11;;;;;;;14.07;7.00;;;22.00;12.60;;;;;;5011461;28;20260;-85
2023/06/18 05:30:36;;;;;;;13.03;6.37;;;22.00;12.70;;;;;;5011550;28;20226;-84
2023/06/18 05:33:02;;;;;;;22.63;8.37;;;22.10;13.30;;;;;;5011393;28;20210;-85
2023/06/18 05:35:27;;;;;;;14.17;6.93;;;22.10;13.00;;;;;;5011226;28;20212;-84
2023/06/18 05:37:53;;;;;;;28.13;7.47;;;22.20;13.30;;;;;;5011333;28;20201;-84
2023/06/18 05:40:19;;;;;;;16.57;7.13;;;22.30;14.00;;;;;;5010261;28;20225;-85
2023/06/18 05:42:46;;;;;;;20.03;7.03;;;22.40;14.10;;;;;;5003597;28;20202;-84
2023/06/18 05:45:11;;;;;;;22.30;7.77;;;22.50;14.30;;;;;;5010713;28;20274;-84
2023/06/18 05:47:37;;;;;;;32.77;7.67;;;22.60;13.50;;;;;;5009309;28;20472;-84
2023/06/18 05:50:03;;;;;;;27.00;10.10;;;22.80;14.20;;;;;;5000335;28;20215;-85
2023/06/18 05:52:28;;;;;;;19.57;7.60;;;22.90;14.10;;;;;;5007866;28;20610;-86
2023/06/18 05:54:53;;;;;;;13.10;6.50;;;23.10;13.90;;;;;;5007607;28;20188;-84
2023/06/18 05:57:19;;;;;;;21.50;8.27;;;23.20;13.90;;;;;;5003859;28;20661;-83
2023/06/18 05:59:47;;;;;;;17.67;7.67;;;23.40;13.10;;;;;;5009352;28;20208;-82
2023/06/18 06:02:12;;;;;;;20.57;7.13;;;23.60;13.40;;;;;;5009137;28;20177;-82
2023/06/18 06:04:38;;;;;;;18.63;6.77;;;23.90;13.60;;;;;;5011514;28;20474;-82
2023/06/18 06:07:04;;;;;;;25.07;6.90;;;24.20;14.40;;;;;;5004886;28;20221;-83
2023/06/18 06:09:30;;;;;;;11.50;6.63;;;24.40;14.40;;;;;;5008069;28;20207;-83
2023/06/18 06:11:55;;;;;;;12.43;6.80;;;24.60;13.80;;;;;;5010303;28;20435;-82
2023/06/18 06:14:21;;;;;;;9.40;5.87;;;24.80;13.50;;;;;;5007782;28;20356;-84
2023/06/18 06:16:47;;;;;;;8.83;6.33;;;25.00;13.40;;;;;;5004715;28;20180;-82
2023/06/18 06:19:12;;;;;;;10.93;5.90;;;25.50;13.30;;;;;;5006094;28;20223;-83
2023/06/18 06:21:38;;;;;;;10.47;6.37;;;25.90;13.10;;;;;;5009835;28;20187;-83
2023/06/18 06:24:04;;;;;;;11.87;5.63;;;26.60;12.70;;;;;;5009399;28;20175;-83
2023/06/18 06:26:29;;;;;;;9.50;5.30;;;27.20;12.10;;;;;;5011533;28;20222;-84
2023/06/18 06:28:55;;;;;;;8.17;5.50;;;28.40;13.30;;;;;;5005266;28;20211;-84
2023/06/18 06:31:21;;;;;;;9.43;5.77;;;29.80;14.50;;;;;;5007410;28;20439;-84
2023/06/18 06:33:46;;;;;;;6.23;5.57;;;30.70;13.80;;;;;;5009034;28;20215;-83
2023/06/18 06:36:12;;;;;;;9.10;5.30;;;31.30;21.90;;;;;;5010348;28;20299;-84
2023/06/18 06:38:38;;;;;;;8.03;5.07;;;31.60;10.40;;;;;;4996152;28;20231;-84
2023/06/18 06:41:03;;;;;;;7.87;6.00;;;33.10;11.40;;;;;;5011249;28;20438;-82
2023/06/18 06:43:30;;;;;;;7.33;5.73;;;34.50;10.10;;;;;;5011581;28;20795;-83
2023/06/18 06:45:55;;;;;;;5.27;4.87;;;35.70;8.10;;;;;;5009380;28;20216;-85
2023/06/18 06:48:21;;;;;;;7.60;4.83;;;36.00;3.40;;;;;;5007358;28;21042;-83
2023/06/18 06:50:46;;;;;;;8.50;5.03;;;35.70;1.00;;;;;;5008293;28;20218;-82
2023/06/18 06:53:12;;;;;;;7.60;4.87;;;35.60;1.00;;;;;;4997453;28;20192;-83
2023/06/18 06:55:37;;;;;;;7.30;5.07;;;36.10;1.00;;;;;;5001451;28;20214;-82
2023/06/18 06:58:03;;;;;;;11.07;5.10;;;36.60;1.00;;;;;;5005528;28;20203;-85
2023/06/18 07:00:28;;;;;;;5.30;4.80;;;36.90;1.00;;;;;;4998233;28;20196;-82
2023/06/18 07:02:54;;;;;;;5.07;4.57;;;36.10;1.00;;;;;;4998202;28;20194;-84
2023/06/18 07:05:19;;;;;;;6.77;5.10;;;34.60;1.00;;;;;;4991919;28;20179;-84
2023/06/18 07:07:45;;;;;;;7.90;4.97;;;33.20;1.00;;;;;;5011700;28;20214;-82
2023/06/18 07:10:10;;;;;;;5.50;4.90;;;32.20;1.00;;;;;;4992807;28;20542;-82
2023/06/18 07:12:36;;;;;;;9.53;5.13;;;31.40;1.00;;;;;;4997352;28;20246;-82
2023/06/18 07:15:02;;;;;;;6.83;5.40;;;30.90;1.00;;;;;;4997357;28;20669;-83
2023/06/18 07:17:27;;;;;;;5.33;4.83;;;31.00;1.00;;;;;;5005960;28;20222;-83
2023/06/18 07:19:54;;;;;;;5.17;4.00;;;32.20;1.00;;;;;;4999409;28;20215;-84
2023/06/18 07:22:20;;;;;;;6.40;5.30;;;33.10;1.00;;;;;;5003262;28;20190;-83
2023/06/18 07:24:46;;;;;;;5.20;4.80;;;33.30;1.00;;;;;;5002441;28;20435;-82
2023/06/18 07:27:11;;;;;;;12.03;6.50;;;33.00;1.00;;;;;;4995875;28;20208;-84
2023/06/18 07:29:37;;;;;;;5.73;4.93;;;32.40;1.00;;;;;;5002630;28;20214;-82
2023/06/18 07:32:02;;;;;;;5.57;4.60;;;31.90;1.00;;;;;;4996893;28;20271;-84
2023/06/18 07:34:28;;;;;;;5.00;4.50;;;32.70;1.00;;;;;;5005432;28;20632;-84
2023/06/18 07:36:53;;;;;;;4.50;4.00;;;33.60;1.00;;;;;;4992999;28;20192;-82
2023/06/18 07:39:19;;;;;;;5.93;5.23;;;33.70;1.00;;;;;;5004821;28;20207;-85
2023/06/18 07:41:47;;;;;;;6.03;5.30;;;33.10;1.00;;;;;;5011790;28;20184;-82
2023/06/18 07:44:16;;;;;;;5.17;4.23;;;32.50;1.00;;;;;;4995865;28;20183;-84
2023/06/18 07:46:45;;;;;;;6.40;4.50;;;32.00;1.00;;;;;;5007419;28;20494;-84
2023/06/18 07:49:11;;;;;;;6.73;4.83;;;31.50;1.00;;;;;;5006773;28;20474;-83
2023/06/18 07:51:37;;;;;;;6.03;5.50;;;30.70;1.00;;;;;;4993981;28;20456;-83
2023/06/18 07:54:02;;;;;;;9.00;5.67;;;30.10;1.00;;;;;;4995530;28;20534;-81
2023/06/18 07:56:28;;;;;;;9.00;5.50;;;29.70;1.00;;;;;;5000462;28;20439;-81
2023/06/18 07:58:53;;;;;;;5.37;4.87;;;29.30;1.00;;;;;;5001406;28;20196;-83
2023/06/18 08:01:19;;;;;;;8.43;5.40;;;29.10;1.00;;;;;;5006537;28;20198;-83
2023/06/18 08:03:45;;;;;;;6.00;5.40;;;29.00;1.00;;;;;;5011086;28;20175;-83
2023/06/18 08:06:10;;;;;;;7.27;5.10;;;29.00;1.00;;;;;;5003301;28;20243;-83
2023/06/18 08:08:36;;;;;;;6.07;5.37;;;29.10;1.00;;;;;;5004175;28;20787;-83
2023/06/18 08:11:01;;;;;;;10.27;5.43;;;29.40;1.00;;;;;;5006068;28;20187;-84
2023/06/18 08:13:27;;;;;;;10.10;5.77;;;29.90;1.00;;;;;;5012030;28;20198;-84
2023/06/18 08:15:52;;;;;;;5.90;5.10;;;32.10;1.00;;;;;;5004504;28;20195;-83
2023/06/18 08:18:18;;;;;;;8.10;4.97;;;34.50;1.00;;;;;;5004636;28;20439;-84
2023/06/18 08:20:43;;;;;;;12.37;5.30;;;36.00;1.00;;;;;;4995993;28;20216;-83
2023/06/18 08:23:09;;;;;;;8.63;5.37;;;36.60;1.00;;;;;;5002524;28;20634;-83
2023/06/18 08:25:35;;;;;;;4.80;4.30;;;37.50;1.00;;;;;;5002725;28;20211;-84
2023/06/18 08:28:01;;;;;;;6.97;4.87;;;39.20;1.00;;;;;;4995352;28;20616;-85
2023/06/18 08:30:27;;;;;;;5.60;4.80;;;41.30;1.00;;;;;;4998192;28;20466;-84
2023/06/18 08:32:55;;;;;;;5.80;4.47;;;43.00;1.00;;;;;;4991354;28;20283;-84
2023/06/18 08:35:22;;;;;;;5.47;4.50;;;43.50;1.00;;;;;;4985896;28;20498;-84
2023/06/18 08:37:47;;;;;;;8.23;4.57;;;43.20;1.00;;;;;;4986278;28;20426;-83
2023/06/18 08:40:18;;;;;;;6.90;4.30;;;42.80;1.00;;;;;;4987410;28;20499;-83
2023/06/18 08:42:44;;;;;;;5.77;4.20;;;42.50;1.00;;;;;;4989799;28;20185;-85
2023/06/18 08:45:09;;;;;;;4.73;4.20;;;42.70;1.00;;;;;;4990778;28;20519;-85
2023/06/18 08:47:37;;;;;;;9.93;5.37;;;43.40;1.00;;;;;;4993793;28;20238;-85
2023/06/18 08:50:04;;;;;;;5.00;4.50;;;44.60;1.00;;;;;;4992317;28;20246;-85
2023/06/18 08:52:31;;;;;;;7.77;4.47;;;45.90;1.00;;;;;;4992420;28;20419;-86
2023/06/18 08:55:02;;;;;;;6.33;4.90;;;46.30;1.00;;;;;;4992975;28;20426;-85
2023/06/18 08:57:37;;;;;;;4.53;4.00;;;46.70;1.00;;;;;;4993658;28;20443;-85
2023/06/18 09:00:04;;;;;;;5.10;4.60;;;47.10;1.00;;;;;;4994247;28;20466;-85
2023/06/18 09:02:30;;;;;;;5.10;4.10;;;47.10;1.00;;;;;;4997424;28;20438;-85
2023/06/18 09:04:56;;;;;;;6.00;4.60;;;47.20;1.00;;;;;;4998860;28;20422;-86
2023/06/18 09:07:23;;;;;;;5.10;4.60;;;46.60;1.00;;;;;;4992327;28;20203;-85
2023/06/18 09:09:49;;;;;;;4.67;3.80;;;47.00;1.00;;;;;;4998359;28;20443;-84
2023/06/18 09:12:14;;;;;;;4.43;3.80;;;47.80;1.00;;;;;;4990568;28;20440;-84
2023/06/18 09:14:40;;;;;;;6.30;4.53;;;48.70;1.00;;;;;;4998634;28;20614;-84
2023/06/18 09:17:06;;;;;;;3.80;3.50;;;49.50;1.00;;;;;;5006208;28;20183;-84
2023/06/18 09:19:33;;;;;;;4.57;4.17;;;50.20;1.00;;;;;;4988486;28;20244;-83
2023/06/18 09:22:20;;;;;;;3.90;3.40;;;51.00;1.00;;;;;;4999456;28;20179;-84
2023/06/18 09:24:45;;;;;;;6.90;4.00;;;51.30;1.00;;;;;;4997519;28;20821;-84
2023/06/18 09:27:11;;;;;;;4.20;3.90;;;51.50;1.00;;;;;;4996688;28;20461;-84
2023/06/18 09:29:40;;;;;;;6.20;4.27;;;51.40;1.00;;;;;;4997906;28;20191;-84
2023/06/18 09:32:11;;;;;;;4.63;4.23;;;51.20;1.00;;;;;;4997956;28;20194;-84
2023/06/18 09:34:38;;;;;;;7.60;4.10;;;51.00;1.00;;;;;;4998463;28;20445;-85
2023/06/18 09:37:05;;;;;;;3.80;3.50;;;51.80;1.00;;;;;;4995346;28;20418;-83
2023/06/18 09:39:32;;;;;;;4.30;3.77;;;52.70;1.00;;;;;;4984332;28;20270;-84
2023/06/18 09:42:06;;;;;;;4.60;3.70;;;51.30;1.00;;;;;;4996814;28;20480;-85
2023/06/18 09:44:33;;;;;;;4.50;4.00;;;49.60;1.00;;;;;;4996461;28;20442;-84
2023/06/18 09:46:59;;;;;;;4.33;3.93;;;48.20;1.00;;;;;;4995661;28;20516;-84
2023/06/18 09:49:27;;;;;;;5.20;4.40;;;47.30;1.00;;;;;;4996876;28;20458;-83
2023/06/18 09:51:53;;;;;;;5.80;4.77;;;47.30;1.00;;;;;;5004069;28;20263;-84
2023/06/18 09:54:20;;;;;;;7.80;4.20;;;46.40;1.00;;;;;;4997424;28;20442;-84
2023/06/18 09:57:00;;;;;;;4.50;4.20;;;45.40;1.00;;;;;;4995477;28;20427;-84
2023/06/18 09:59:26;;;;;;;5.10;4.40;;;44.40;1.00;;;;;;4993961;28;20469;-83
2023/06/18 10:01:52;;;;;;;5.50;5.00;;;43.50;1.00;;;;;;4997661;28;21044;-83
2023/06/18 10:04:18;;;;;;;4.93;4.40;;;42.60;1.00;;;;;;4998022;28;20411;-83
2023/06/18 10:06:51;;;;;;;5.20;4.60;;;42.20;1.00;;;;;;4998967;28;20481;-83
2023/06/18 10:09:19;;;;;;;5.53;4.30;;;42.50;1.00;;;;;;4996779;28;20234;-83
2023/06/18 10:11:49;;;;;;;4.90;4.50;;;43.60;1.00;;;;;;4995932;28;20415;-84
2023/06/18 10:14:16;;;;;;;6.20;3.83;;;43.90;1.00;;;;;;4991787;28;21012;-83
2023/06/18 10:16:47;;;;;;;5.23;4.03;;;43.80;1.00;;;;;;4991550;28;20539;-84
2023/06/18 10:19:37;;;;;;;5.50;4.80;;;43.80;1.00;;;;;;4995153;28;20521;-83
2023/06/18 10:22:03;;;;;;;5.60;4.80;;;44.00;1.00;;;;;;4980103;28;20442;-84
2023/06/18 10:24:43;;;;;;;4.67;4.10;;;44.10;1.00;;;;;;4994604;28;20481;-83
2023/06/18 10:27:08;;;;;;;5.30;4.80;;;44.50;1.00;;;;;;4995214;28;20462;-84
2023/06/18 10:29:34;;;;;;;6.20;4.63;;;44.30;1.00;;;;;;4993628;28;20462;-83
2023/06/18 10:32:03;;;;;;;5.13;4.53;;;43.70;1.00;;;;;;4989494;28;20191;-84
2023/06/18 10:34:30;;;;;;;4.13;3.83;;;43.10;1.00;;;;;;4996412;28;20250;-83
2023/06/18 10:36:56;;;;;;;6.17;3.83;;;42.40;1.00;;;;;;4994369;28;20433;-83
2023/06/18 10:39:23;;;;;;;4.60;4.17;;;42.20;1.00;;;;;;4996294;28;20458;-83
2023/06/18 10:41:50;;;;;;;5.33;4.70;;;41.70;1.00;;;;;;4994000;28;20434;-83
2023/06/18 10:44:16;;;;;;;6.13;4.00;;;41.30;1.00;;;;;;4993569;28;20422;-83
2023/06/18 10:47:20;;;;;;;4.80;4.50;;;40.80;1.00;;;;;;4993504;28;20471;-83
2023/06/18 10:50:07;;;;;;;4.80;4.40;;;40.40;1.00;;;;;;4994796;28;20243;-83
2023/06/18 10:52:39;;;;;;;6.50;5.47;;;39.90;1.00;;;;;;4996508;28;20470;-83
2023/06/18 10:55:20;;;;;;;5.17;4.70;;;39.40;1.00;;;;;;4996814;28;21044;-83
2023/06/18 10:57:55;;;;;;;6.27;4.43;;;39.00;1.00;;;;;;4996611;28;20407;-83
2023/06/18 11:00:28;;;;;;;6.00;5.40;;;38.80;1.00;;;;;;4997141;28;20430;-83
2023/06/18 11:03:05;;;;;;;5.27;4.77;;;38.70;1.00;;;;;;4995354;28;20471;-83
2023/06/18 11:05:34;;;;;;;6.50;4.57;;;39.00;1.00;;;;;;5008474;28;20435;-83
2023/06/18 11:08:01;;;;;;;6.30;5.70;;;39.00;1.00;;;;;;4993430;28;20469;-83
2023/06/18 11:11:03;;;;;;;7.43;4.87;;;38.80;1.00;;;;;;4995197;28;20445;-83
2023/06/18 11:13:36;;;;;;;5.83;5.00;;;38.60;1.00;;;;;;4998146;28;20452;-83
2023/06/18 11:16:10;;;;;;;7.27;5.43;;;38.50;1.00;;;;;;4997264;28;20430;-83
2023/06/18 11:18:39;;;;;;;7.90;5.47;;;38.50;1.00;;;;;;4996431;28;20433;-83
2023/06/18 11:21:04;;;;;;;5.93;5.37;;;38.30;1.00;;;;;;4996930;28;20603;-83
2023/06/18 11:23:31;;;;;;;5.40;4.90;;;38.00;1.00;;;;;;4994508;28;20449;-83
2023/06/18 11:25:57;;;;;;;6.90;5.10;;;37.50;1.00;;;;;;4997540;28;20227;-85
2023/06/18 11:28:26;;;;;;;7.20;5.37;;;37.10;1.00;;;;;;4999147;28;20418;-83
2023/06/18 11:30:59;;;;;;;5.00;4.60;;;36.40;1.00;;;;;;4998855;28;20419;-84
2023/06/18 11:33:26;;;;;;;8.10;5.67;;;36.00;1.00;;;;;;4998731;28;20505;-84
2023/06/18 11:35:53;;;;;;;7.57;5.00;;;35.60;1.00;;;;;;4999369;28;20419;-85
2023/06/18 11:38:20;;;;;;;5.90;5.30;;;35.30;1.00;;;;;;4998135;28;20439;-84
2023/06/18 11:40:50;;;;;;;6.00;5.30;;;35.10;1.00;;;;;;4995241;28;20443;-84
2023/06/18 11:43:16;;;;;;;9.33;5.50;;;35.10;1.00;;;;;;4991656;28;20431;-84
2023/06/18 11:45:46;;;;;;;5.47;4.97;;;35.00;1.00;;;;;;4998936;28;20414;-84
2023/06/18 11:48:12;;;;;;;9.63;6.00;;;34.90;1.00;;;;;;5002900;28;20237;-84
2023/06/18 11:50:37;;;;;;;5.60;5.07;;;34.80;1.00;;;;;;4999348;28;20467;-84
2023/06/18 11:53:05;;;;;;;8.43;5.50;;;34.70;1.00;;;;;;4998414;28;20187;-84
2023/06/18 11:55:32;;;;;;;5.37;4.90;;;34.50;1.00;;;;;;4997010;28;20176;-84
2023/06/18 11:58:00;;;;;;;6.00;5.03;;;34.40;1.00;;;;;;4997369;28;20501;-83
2023/06/18 12:00:26;;;;;;;5.33;4.83;;;34.20;1.00;;;;;;4999626;28;20445;-84
2023/06/18 12:02:51;;;;;;;8.33;5.70;;;34.10;1.00;;;;;;5000354;28;20418;-82
2023/06/18 12:05:17;;;;;;;6.10;5.50;;;34.00;1.00;;;;;;4992432;28;20542;-84
2023/06/18 12:07:44;;;;;;;6.10;5.40;;;33.90;1.00;;;;;;5003222;28;20226;-84
2023/06/18 12:10:11;;;;;;;5.87;5.20;;;33.90;1.00;;;;;;4998395;28;20208;-84
2023/06/18 12:13:04;;;;;;;16.30;12.63;;;33.90;1.00;;;;;;5012870;28;20462;-84
2023/06/18 12:15:39;;;;;;;13.80;8.40;;;34.00;1.00;;;;;;5009526;28;20818;-83
2023/06/18 12:18:15;;;;;;;10.10;8.93;;;34.20;1.00;;;;;;4993481;28;20430;-84
2023/06/18 12:20:41;;;;;;;9.93;7.33;;;34.40;1.00;;;;;;4995776;28;20500;-84
2023/06/18 12:23:07;;;;;;;6.60;5.83;;;34.70;1.00;;;;;;4991672;28;20442;-84
2023/06/18 12:25:33;;;;;;;5.30;4.80;;;34.70;1.00;;;;;;4997904;28;20411;-85
2023/06/18 12:28:03;;;;;;;6.37;5.77;;;34.70;1.00;;;;;;4997199;28;20242;-84
2023/06/18 12:30:31;;;;;;;6.00;5.43;;;34.60;1.00;;;;;;4996878;28;20430;-84
2023/06/18 12:33:23;;;;;;;5.73;5.23;;;34.60;1.00;;;;;;4998764;28;20415;-85
2023/06/18 12:35:53;;;;;;;8.10;6.73;;;34.70;1.00;;;;;;4993870;28;20509;-84
2023/06/18 12:38:20;;;;;;;6.97;6.27;;;34.80;1.00;;;;;;5003684;28;20481;-84
2023/06/18 12:40:50;;;;;;;7.10;6.40;;;34.90;1.00;;;;;;4994612;28;20439;-85
2023/06/18 12:43:17;;;;;;;9.17;8.27;;;35.00;1.00;;;;;;4994211;28;20438;-84
2023/06/18 12:45:44;;;;;;;7.33;5.50;;;35.00;1.00;;;;;;4995592;28;20849;-84
2023/06/18 12:48:14;;;;;;;7.70;6.97;;;35.00;1.00;;;;;;4995990;28;20418;-84
2023/06/18 12:50:41;;;;;;;7.40;5.83;;;35.00;1.00;;;;;;4996292;28;20461;-85
2023/06/18 12:53:21;;;;;;;8.37;5.67;;;34.90;1.00;;;;;;4996297;28;20457;-85